createdAt,value
2023-05-05T00:00:07.400Z,14.20
2023-05-05T00:00:19.743Z,14.48
2023-05-05T00:00:31.246Z,16.67
2023-05-05T00:00:42.635Z,15.40
2023-05-05T00:00:54.647Z,15.68
2023-05-05T00:01:06.123Z,12.75
2023-05-05T00:01:17.966Z,12.82
2023-05-05T00:01:29.381Z,12.63
2023-05-05T00:01:40.847Z,14.75
2023-05-05T00:01:52.387Z,16.98
2023-05-05T00:02:03.913Z,18.55
2023-05-05T00:02:15.626Z,15.73
2023-05-05T00:02:27.422Z,15.05
2023-05-05T00:02:40.195Z,13.07
2023-05-05T00:02:51.759Z,12.55
2023-05-05T00:03:03.470Z,12.70
2023-05-05T00:03:15.120Z,12.27
2023-05-05T00:03:28.025Z,15.60
2023-05-05T00:03:39.689Z,17.05
2023-05-05T00:03:51.444Z,16.13
2023-05-05T00:04:03.128Z,15.10
2023-05-05T00:04:14.711Z,14.35
2023-05-05T00:04:26.404Z,14.75
2023-05-05T00:04:38.033Z,14.60
2023-05-05T00:04:49.428Z,15.15
2023-05-05T00:05:00.810Z,13.95
2023-05-05T00:05:12.448Z,13.20
2023-05-05T00:05:23.876Z,11.90
2023-05-05T00:05:35.289Z,11.75
2023-05-05T00:05:48.205Z,14.15
2023-05-05T00:05:59.901Z,15.02
2023-05-05T00:06:11.287Z,17.23
2023-05-05T00:06:22.708Z,16.20
2023-05-05T00:06:34.086Z,14.85
2023-05-05T00:06:45.497Z,14.10
2023-05-05T00:06:56.923Z,13.63
2023-05-05T00:07:08.306Z,13.13
2023-05-05T00:07:19.754Z,12.88
2023-05-05T00:07:31.160Z,13.82
2023-05-05T00:07:42.485Z,14.45
2023-05-05T00:07:53.882Z,13.20
2023-05-05T00:08:07.821Z,14.00
2023-05-05T00:08:19.255Z,15.63
2023-05-05T00:08:30.621Z,16.00
2023-05-05T00:08:42.015Z,15.77
2023-05-05T00:08:53.478Z,14.80
2023-05-05T00:09:04.871Z,15.38
2023-05-05T00:09:16.356Z,15.32
2023-05-05T00:09:27.788Z,13.95
2023-05-05T00:09:39.515Z,13.25
2023-05-05T00:09:51.138Z,13.63
2023-05-05T00:10:03.581Z,13.52
2023-05-05T00:10:15.007Z,14.25
2023-05-05T00:10:26.519Z,16.00
2023-05-05T00:10:37.884Z,15.25
2023-05-05T00:10:53.031Z,14.70
2023-05-05T00:11:04.538Z,14.68
2023-05-05T00:11:16.113Z,18.40
2023-05-05T00:11:27.532Z,16.83
2023-05-05T00:11:38.974Z,17.02
2023-05-05T00:11:50.371Z,13.05
2023-05-05T00:12:01.774Z,14.07
2023-05-05T00:12:13.286Z,14.30
2023-05-05T00:12:24.759Z,14.52
2023-05-05T00:12:36.204Z,15.68
2023-05-05T00:12:47.835Z,16.23
2023-05-05T00:12:59.241Z,14.85
2023-05-05T00:13:11.002Z,17.15
2023-05-05T00:13:23.306Z,18.25
2023-05-05T00:13:34.810Z,15.73
2023-05-05T00:13:46.867Z,14.13
2023-05-05T00:13:58.326Z,13.65
2023-05-05T00:14:09.800Z,13.77
2023-05-05T00:14:21.305Z,16.40
2023-05-05T00:14:32.676Z,17.60
2023-05-05T00:14:44.127Z,15.05
2023-05-05T00:14:55.756Z,15.77
2023-05-05T00:15:07.621Z,17.05
2023-05-05T00:15:19.056Z,19.08
2023-05-05T00:15:30.522Z,20.50
2023-05-05T00:15:43.347Z,19.35
2023-05-05T00:15:54.748Z,15.80
2023-05-05T00:16:06.466Z,15.88
2023-05-05T00:16:17.898Z,15.30
2023-05-05T00:16:29.394Z,15.88
2023-05-05T00:16:40.889Z,14.63
2023-05-05T00:16:52.361Z,14.50
2023-05-05T00:17:03.904Z,15.20
2023-05-05T00:17:15.485Z,15.02
2023-05-05T00:17:26.992Z,15.38
2023-05-05T00:17:38.482Z,14.63
2023-05-05T00:17:49.957Z,15.68
2023-05-05T00:18:01.893Z,14.23
2023-05-05T00:18:15.244Z,14.88
2023-05-05T00:18:26.874Z,13.98
2023-05-05T00:18:38.260Z,14.25
2023-05-05T00:18:49.654Z,14.10
2023-05-05T00:19:01.024Z,13.88
2023-05-05T00:19:12.481Z,12.82
2023-05-05T00:19:23.847Z,11.57
2023-05-05T00:19:35.237Z,12.73
2023-05-05T00:19:46.614Z,12.88
2023-05-05T00:19:58.010Z,12.80
2023-05-05T00:20:09.810Z,12.57
2023-05-05T00:20:21.869Z,13.38
2023-05-05T00:20:33.422Z,13.95
2023-05-05T00:20:45.634Z,13.80
2023-05-05T00:20:57.075Z,14.05
2023-05-05T00:21:08.454Z,13.57
2023-05-05T00:21:19.842Z,13.80
2023-05-05T00:21:31.272Z,15.57
2023-05-05T00:21:43.717Z,15.95
2023-05-05T00:21:55.048Z,15.82
2023-05-05T00:22:06.485Z,15.50
2023-05-05T00:22:17.892Z,14.68
2023-05-05T00:22:29.376Z,13.57
2023-05-05T00:22:40.814Z,14.73
2023-05-05T00:22:52.196Z,16.27
2023-05-05T00:23:03.816Z,15.90
2023-05-05T00:23:16.481Z,14.82
2023-05-05T00:23:27.932Z,14.10
2023-05-05T00:23:39.358Z,15.43
2023-05-05T00:23:50.865Z,14.32
2023-05-05T00:24:02.296Z,14.50
2023-05-05T00:24:13.788Z,14.98
2023-05-05T00:24:25.361Z,17.95
2023-05-05T00:24:36.785Z,17.60
2023-05-05T00:24:48.201Z,16.80
2023-05-05T00:24:59.670Z,14.27
2023-05-05T00:25:11.039Z,13.73
2023-05-05T00:25:22.496Z,15.13
2023-05-05T00:25:34.243Z,14.70
2023-05-05T00:25:45.702Z,15.13
2023-05-05T00:25:57.099Z,14.60
2023-05-05T00:26:08.658Z,16.52
2023-05-05T00:26:21.044Z,15.32
2023-05-05T00:26:32.443Z,14.63
2023-05-05T00:26:43.794Z,12.85
2023-05-05T00:26:55.170Z,14.10
2023-05-05T00:27:06.725Z,14.80
2023-05-05T00:27:18.168Z,13.55
2023-05-05T00:27:29.582Z,13.57
2023-05-05T00:27:41.108Z,12.90
2023-05-05T00:27:52.921Z,12.43
2023-05-05T00:28:06.655Z,12.48
2023-05-05T00:28:18.088Z,12.57
2023-05-05T00:28:29.744Z,14.25
2023-05-05T00:28:41.167Z,15.27
2023-05-05T00:28:52.568Z,17.80
2023-05-05T00:29:04.050Z,15.15
2023-05-05T00:29:15.429Z,15.00
2023-05-05T00:29:26.921Z,15.00
2023-05-05T00:29:38.379Z,15.20
2023-05-05T00:29:49.806Z,13.57
2023-05-05T00:30:01.339Z,12.80
2023-05-05T00:30:12.967Z,12.82
2023-05-05T00:30:24.604Z,12.80
2023-05-05T00:30:36.737Z,15.88
2023-05-05T00:30:48.277Z,16.27
2023-05-05T00:30:59.827Z,16.02
2023-05-05T00:31:12.564Z,16.63
2023-05-05T00:31:24.091Z,15.48
2023-05-05T00:31:35.636Z,13.32
2023-05-05T00:31:47.083Z,12.68
2023-05-05T00:31:58.508Z,16.27
2023-05-05T00:32:09.958Z,18.38
2023-05-05T00:32:21.444Z,19.42
2023-05-05T00:32:32.855Z,19.05
2023-05-05T00:32:44.567Z,16.20
2023-05-05T00:32:56.204Z,16.15
2023-05-05T00:33:07.831Z,13.45
2023-05-05T00:33:19.266Z,14.32
2023-05-05T00:33:30.814Z,17.90
2023-05-05T00:33:42.582Z,19.50
2023-05-05T00:33:54.748Z,19.30
2023-05-05T00:34:06.200Z,19.25
2023-05-05T00:34:17.780Z,17.33
2023-05-05T00:34:29.115Z,18.15
2023-05-05T00:34:40.484Z,18.42
2023-05-05T00:34:51.974Z,16.50
2023-05-05T00:35:03.489Z,21.73
2023-05-05T00:35:18.259Z,19.88
2023-05-05T00:35:29.732Z,14.40
2023-05-05T00:35:41.228Z,13.02
2023-05-05T00:35:52.638Z,14.63
2023-05-05T00:36:04.105Z,14.95
2023-05-05T00:36:15.516Z,15.18
2023-05-05T00:36:26.946Z,16.23
2023-05-05T00:36:38.356Z,17.52
2023-05-05T00:36:49.728Z,16.98
2023-05-05T00:37:01.144Z,18.52
2023-05-05T00:37:12.551Z,15.27
2023-05-05T00:37:23.999Z,14.85
2023-05-05T00:37:35.576Z,14.40
2023-05-05T00:37:47.064Z,14.38
2023-05-05T00:37:58.490Z,14.80
2023-05-05T00:38:09.961Z,15.73
2023-05-05T00:38:21.424Z,17.33
2023-05-05T00:38:32.795Z,16.55
2023-05-05T00:38:44.365Z,15.65
2023-05-05T00:38:55.831Z,14.35
2023-05-05T00:39:07.266Z,13.52
2023-05-05T00:39:18.683Z,14.48
2023-05-05T00:39:30.150Z,14.55
2023-05-05T00:39:41.553Z,16.48
2023-05-05T00:39:53.001Z,15.45
2023-05-05T00:40:04.975Z,16.42
2023-05-05T00:40:16.597Z,12.93
2023-05-05T00:40:28.055Z,13.35
2023-05-05T00:40:39.569Z,15.50
2023-05-05T00:40:50.949Z,15.73
2023-05-05T00:41:02.394Z,13.60
2023-05-05T00:41:13.891Z,12.52
2023-05-05T00:41:25.500Z,13.63
2023-05-05T00:41:36.927Z,13.57
2023-05-05T00:41:50.969Z,13.25
2023-05-05T00:42:02.385Z,13.38
2023-05-05T00:42:13.844Z,12.43
2023-05-05T00:42:26.717Z,12.10
2023-05-05T00:42:42.241Z,14.88
2023-05-05T00:42:53.656Z,18.88
2023-05-05T00:43:05.128Z,17.42
2023-05-05T00:43:16.596Z,16.48
2023-05-05T00:43:28.034Z,14.35
2023-05-05T00:43:39.450Z,15.77
2023-05-05T00:43:50.897Z,18.27
2023-05-05T00:44:02.311Z,18.08
2023-05-05T00:44:14.100Z,17.67
2023-05-05T00:44:51.801Z,15.82
2023-05-05T00:45:03.299Z,17.02
2023-05-05T00:45:16.501Z,16.33
2023-05-05T00:45:28.152Z,19.42
2023-05-05T00:45:39.932Z,20.27
2023-05-05T00:46:02.253Z,20.58
2023-05-05T00:46:33.800Z,19.98
2023-05-05T00:46:45.430Z,17.85
2023-05-05T00:46:56.940Z,17.15
2023-05-05T00:47:09.571Z,14.60
2023-05-05T00:47:21.102Z,15.90
2023-05-05T00:47:32.809Z,14.80
2023-05-05T00:48:02.762Z,16.50
2023-05-05T00:48:14.437Z,14.90
2023-05-05T00:48:25.924Z,13.80
2023-05-05T00:48:38.641Z,12.73
2023-05-05T00:48:51.233Z,13.40
2023-05-05T00:49:03.217Z,15.40
2023-05-05T00:49:15.304Z,15.85
2023-05-05T00:49:26.873Z,14.57
2023-05-05T00:49:39.665Z,15.30
2023-05-05T00:49:51.090Z,15.07
2023-05-05T00:50:08.802Z,14.63
2023-05-05T00:50:27.907Z,13.82
2023-05-05T00:50:40.105Z,16.80
2023-05-05T00:50:51.836Z,16.92
2023-05-05T00:51:03.292Z,14.98
2023-05-05T00:51:16.701Z,15.00
2023-05-05T00:51:28.402Z,15.05
2023-05-05T00:51:39.871Z,15.27
2023-05-05T00:51:52.439Z,16.05
2023-05-05T00:52:11.788Z,15.27
2023-05-05T00:52:25.742Z,13.32
2023-05-05T00:52:38.385Z,12.93
2023-05-05T00:53:13.210Z,13.10
2023-05-05T00:53:26.628Z,13.65
2023-05-05T00:53:50.317Z,13.63
2023-05-05T00:54:04.156Z,13.85
2023-05-05T00:54:15.812Z,14.25
2023-05-05T00:54:27.828Z,13.93
2023-05-05T00:54:39.388Z,14.40
2023-05-05T00:54:50.855Z,13.65
2023-05-05T00:55:03.155Z,15.88
2023-05-05T00:55:14.746Z,17.05
2023-05-05T00:55:26.442Z,17.85
2023-05-05T00:55:37.878Z,16.52
2023-05-05T00:55:49.839Z,15.55
2023-05-05T00:56:01.961Z,15.05
2023-05-05T00:56:14.325Z,15.32
2023-05-05T00:56:25.850Z,13.75
2023-05-05T00:56:37.302Z,14.40
2023-05-05T00:56:50.302Z,13.32
2023-05-05T00:57:02.812Z,12.77
2023-05-05T00:57:14.318Z,12.07
2023-05-05T00:57:26.325Z,14.38
2023-05-05T00:57:37.934Z,14.15
2023-05-05T00:57:49.820Z,14.75
2023-05-05T00:58:02.659Z,15.40
2023-05-05T00:58:14.138Z,17.88
2023-05-05T00:58:25.652Z,16.73
2023-05-05T00:58:37.123Z,14.18
2023-05-05T00:58:49.264Z,13.25
2023-05-05T00:59:02.659Z,13.15
2023-05-05T00:59:14.126Z,14.00
2023-05-05T00:59:27.411Z,14.45
2023-05-05T00:59:38.933Z,14.85
2023-05-05T00:59:51.181Z,13.48
2023-05-05T01:00:03.185Z,12.65
2023-05-05T01:00:14.900Z,13.52
2023-05-05T01:00:29.599Z,14.88
2023-05-05T01:00:41.179Z,16.65
2023-05-05T01:00:52.632Z,16.95
2023-05-05T01:01:04.293Z,16.00
2023-05-05T01:01:15.763Z,14.65
2023-05-05T01:01:27.336Z,13.43
2023-05-05T01:01:38.986Z,12.82
2023-05-05T01:01:50.529Z,14.32
2023-05-05T01:02:02.397Z,16.50
2023-05-05T01:02:14.014Z,16.80
2023-05-05T01:02:25.702Z,12.32
2023-05-05T01:02:38.379Z,14.43
2023-05-05T01:02:49.852Z,15.82
2023-05-05T01:03:01.413Z,15.30
2023-05-05T01:03:13.126Z,12.60
2023-05-05T01:03:24.908Z,13.38
2023-05-05T01:03:40.424Z,16.00
2023-05-05T01:03:52.376Z,15.98
2023-05-05T01:04:04.106Z,15.50
2023-05-05T01:04:15.665Z,14.18
2023-05-05T01:04:27.427Z,13.35
2023-05-05T01:04:38.853Z,13.13
2023-05-05T01:04:50.187Z,13.07
2023-05-05T01:05:02.937Z,11.60
2023-05-05T01:05:16.076Z,12.07
2023-05-05T01:05:33.997Z,14.45
2023-05-05T01:06:07.319Z,13.38
2023-05-05T01:06:44.985Z,12.73
2023-05-05T01:07:07.582Z,12.90
2023-05-05T01:07:37.636Z,14.13
2023-05-05T01:08:16.976Z,13.20
2023-05-05T01:08:55.676Z,16.00
2023-05-05T01:09:55.549Z,15.93
2023-05-05T01:10:48.374Z,14.48
2023-05-05T01:11:10.168Z,15.40
2023-05-05T01:12:00.359Z,14.60
2023-05-05T01:12:20.786Z,14.98
2023-05-05T01:12:38.367Z,14.00
2023-05-05T01:13:06.805Z,14.23
2023-05-05T01:13:36.317Z,15.32
2023-05-05T01:13:56.767Z,13.18
2023-05-05T01:14:15.979Z,12.10
2023-05-05T01:14:45.488Z,13.38
2023-05-05T01:15:16.474Z,15.93
2023-05-05T01:15:57.257Z,13.52
2023-05-05T01:16:16.700Z,14.98
2023-05-05T01:16:31.727Z,15.55
2023-05-05T01:17:10.278Z,14.65
2023-05-05T01:17:38.601Z,20.40
2023-05-05T01:18:04.073Z,19.25
2023-05-05T01:18:41.941Z,14.85
2023-05-05T01:19:18.882Z,13.60
2023-05-05T01:19:58.731Z,17.83
2023-05-05T01:20:35.106Z,12.77
2023-05-05T01:20:53.256Z,15.02
2023-05-05T01:21:13.436Z,13.63
2023-05-05T01:21:30.751Z,13.93
2023-05-05T01:21:48.242Z,14.55
2023-05-05T01:22:03.498Z,14.77
2023-05-05T01:22:18.162Z,14.82
2023-05-05T01:22:37.621Z,14.80
2023-05-05T01:23:02.256Z,14.90
2023-05-05T01:23:30.065Z,13.85
2023-05-05T01:24:22.328Z,16.00
2023-05-05T01:24:33.665Z,17.92
2023-05-05T01:25:08.164Z,18.23
2023-05-05T01:25:44.006Z,14.57
2023-05-05T01:26:06.298Z,15.10
2023-05-05T01:26:32.019Z,14.88
2023-05-05T01:27:06.212Z,15.52
2023-05-05T01:27:47.299Z,13.70
2023-05-05T01:28:24.393Z,13.93
2023-05-05T01:28:48.935Z,20.05
2023-05-05T01:29:14.007Z,16.30
2023-05-05T01:29:58.305Z,15.30
2023-05-05T01:30:28.324Z,12.90
2023-05-05T01:30:54.472Z,15.40
2023-05-05T01:31:37.846Z,14.98
2023-05-05T01:31:54.866Z,16.20
2023-05-05T01:32:20.805Z,17.75
2023-05-05T01:32:38.578Z,14.13
2023-05-05T01:32:53.096Z,14.05
2023-05-05T01:33:08.472Z,14.32
2023-05-05T01:33:25.587Z,14.48
2023-05-05T01:33:45.722Z,14.23
2023-05-05T01:34:04.248Z,13.35
2023-05-05T01:34:19.262Z,16.75
2023-05-05T01:34:39.245Z,16.98
2023-05-05T01:34:58.456Z,16.75
2023-05-05T01:35:15.558Z,14.68
2023-05-05T01:35:35.661Z,14.55
2023-05-05T01:35:52.377Z,15.13
2023-05-05T01:36:10.432Z,16.15
2023-05-05T01:36:31.176Z,16.17
2023-05-05T01:36:48.984Z,17.30
2023-05-05T01:37:18.174Z,19.92
2023-05-05T01:37:40.465Z,16.40
2023-05-05T01:37:56.491Z,14.15
2023-05-05T01:38:23.039Z,14.77
2023-05-05T01:38:45.683Z,13.52
2023-05-05T01:39:00.747Z,15.02
2023-05-05T01:39:15.879Z,17.02
2023-05-05T01:39:31.750Z,18.77
2023-05-05T01:39:46.294Z,17.55
2023-05-05T01:40:03.369Z,16.52
2023-05-05T01:40:17.383Z,16.45
2023-05-05T01:40:33.457Z,14.65
2023-05-05T01:40:52.155Z,14.35
2023-05-05T01:41:21.896Z,13.77
2023-05-05T01:41:46.981Z,15.23
2023-05-05T01:42:04.798Z,15.20
2023-05-05T01:42:17.508Z,14.23
2023-05-05T01:42:29.772Z,13.38
2023-05-05T01:42:43.088Z,14.02
2023-05-05T01:42:56.202Z,14.95
2023-05-05T01:43:10.520Z,14.38
2023-05-05T01:43:23.284Z,14.15
2023-05-05T01:43:39.103Z,14.68
2023-05-05T01:43:54.142Z,16.70
2023-05-05T01:44:07.934Z,19.95
2023-05-05T01:44:20.128Z,18.33
2023-05-05T01:44:34.747Z,16.17
2023-05-05T01:44:50.503Z,15.52
2023-05-05T01:45:07.796Z,14.73
2023-05-05T01:45:24.660Z,14.13
2023-05-05T01:45:39.871Z,17.75
2023-05-05T01:45:53.570Z,17.63
2023-05-05T01:46:08.591Z,16.55
2023-05-05T01:46:23.669Z,14.82
2023-05-05T01:46:36.453Z,13.90
2023-05-05T01:46:50.230Z,13.93
2023-05-05T01:47:04.110Z,14.00
2023-05-05T01:47:18.587Z,15.18
2023-05-05T01:47:31.629Z,15.10
2023-05-05T01:47:44.524Z,14.35
2023-05-05T01:47:57.140Z,14.55
2023-05-05T01:48:09.431Z,14.98
2023-05-05T01:48:22.878Z,17.98
2023-05-05T01:48:34.693Z,18.35
2023-05-05T01:48:48.228Z,16.75
2023-05-05T01:48:59.996Z,15.02
2023-05-05T01:49:13.717Z,19.38
2023-05-05T01:49:26.946Z,19.75
2023-05-05T01:49:38.652Z,14.05
2023-05-05T01:49:50.922Z,16.98
2023-05-05T01:50:04.299Z,16.95
2023-05-05T01:50:16.696Z,13.60
2023-05-05T01:50:28.799Z,14.05
2023-05-05T01:50:42.188Z,14.50
2023-05-05T01:50:54.130Z,14.32
2023-05-05T01:51:06.700Z,13.48
2023-05-05T01:51:20.731Z,14.25
2023-05-05T01:51:32.524Z,14.15
2023-05-05T01:51:47.735Z,13.73
2023-05-05T01:52:00.810Z,15.88
2023-05-05T01:52:14.329Z,16.35
2023-05-05T01:52:28.016Z,16.90
2023-05-05T01:52:40.865Z,15.07
2023-05-05T01:52:53.648Z,13.10
2023-05-05T01:53:06.957Z,12.43
2023-05-05T01:53:20.121Z,14.25
2023-05-05T01:53:33.099Z,15.18
2023-05-05T01:53:44.532Z,14.45
2023-05-05T01:53:59.082Z,14.52
2023-05-05T01:54:10.617Z,14.75
2023-05-05T01:54:23.582Z,14.45
2023-05-05T01:54:35.310Z,14.88
2023-05-05T01:54:48.708Z,13.75
2023-05-05T01:55:02.182Z,15.00
2023-05-05T01:55:17.458Z,18.45
2023-05-05T01:55:30.695Z,18.05
2023-05-05T01:55:43.576Z,16.65
2023-05-05T01:55:57.721Z,16.23
2023-05-05T01:56:11.645Z,15.93
2023-05-05T01:56:25.118Z,15.68
2023-05-05T01:56:40.047Z,14.82
2023-05-05T01:56:54.144Z,15.02
2023-05-05T01:57:08.548Z,14.57
2023-05-05T01:57:20.756Z,13.82
2023-05-05T01:57:33.311Z,14.52
2023-05-05T01:57:47.230Z,18.10
2023-05-05T01:58:00.126Z,18.60
2023-05-05T01:58:13.571Z,15.55
2023-05-05T01:58:27.515Z,16.27
2023-05-05T01:58:40.891Z,16.77
2023-05-05T01:58:54.482Z,15.68
2023-05-05T01:59:06.860Z,14.13
2023-05-05T01:59:20.351Z,13.95
2023-05-05T01:59:33.581Z,14.82
2023-05-05T01:59:45.199Z,14.95
2023-05-05T01:59:58.676Z,16.17
2023-05-05T02:00:11.219Z,15.23
2023-05-05T02:00:23.382Z,15.38
2023-05-05T02:00:35.134Z,13.57
2023-05-05T02:00:47.695Z,12.95
2023-05-05T02:01:00.388Z,14.50
2023-05-05T02:01:13.178Z,15.68
2023-05-05T02:01:26.207Z,16.85
2023-05-05T02:01:40.828Z,16.58
2023-05-05T02:01:52.898Z,15.10
2023-05-05T02:02:06.016Z,14.68
2023-05-05T02:02:19.729Z,14.95
2023-05-05T02:02:34.928Z,14.85
2023-05-05T02:02:48.093Z,13.50
2023-05-05T02:03:01.079Z,14.95
2023-05-05T02:03:14.777Z,17.70
2023-05-05T02:03:28.911Z,19.65
2023-05-05T02:03:41.906Z,17.13
2023-05-05T02:03:55.190Z,16.10
2023-05-05T02:04:07.648Z,14.85
2023-05-05T02:04:20.358Z,15.82
2023-05-05T02:04:34.476Z,15.85
2023-05-05T02:04:47.044Z,14.02
2023-05-05T02:04:59.255Z,14.35
2023-05-05T02:05:12.435Z,16.83
2023-05-05T02:05:25.656Z,16.17
2023-05-05T02:05:39.625Z,14.77
2023-05-05T02:05:53.082Z,15.50
2023-05-05T02:06:07.289Z,15.15
2023-05-05T02:06:22.268Z,15.93
2023-05-05T02:06:35.315Z,15.93
2023-05-05T02:06:47.742Z,15.20
2023-05-05T02:07:01.009Z,16.33
2023-05-05T02:07:13.967Z,16.67
2023-05-05T02:07:26.983Z,15.20
2023-05-05T02:07:39.200Z,15.75
2023-05-05T02:07:52.219Z,16.38
2023-05-05T02:08:06.372Z,15.13
2023-05-05T02:08:19.466Z,14.80
2023-05-05T02:08:31.425Z,13.95
2023-05-05T02:08:44.353Z,14.07
2023-05-05T02:08:57.478Z,14.32
2023-05-05T02:09:12.414Z,14.88
2023-05-05T02:09:25.561Z,16.02
2023-05-05T02:09:38.536Z,17.50
2023-05-05T02:09:51.625Z,15.75
2023-05-05T02:10:04.705Z,14.20
2023-05-05T02:10:16.450Z,16.15
2023-05-05T02:10:28.550Z,18.00
2023-05-05T02:10:40.680Z,19.80
2023-05-05T02:10:54.066Z,20.02
2023-05-05T02:11:06.476Z,18.48
2023-05-05T02:11:19.986Z,16.35
2023-05-05T02:11:31.640Z,16.55
2023-05-05T02:11:44.770Z,16.23
2023-05-05T02:11:58.681Z,16.30
2023-05-05T02:12:11.000Z,17.45
2023-05-05T02:12:23.126Z,16.70
2023-05-05T02:12:37.171Z,15.07
2023-05-05T02:12:51.616Z,18.40
2023-05-05T02:13:04.442Z,20.98
2023-05-05T02:13:18.061Z,21.92
2023-05-05T02:13:31.695Z,18.35
2023-05-05T02:13:44.618Z,16.88
2023-05-05T02:13:56.211Z,21.70
2023-05-05T02:14:09.095Z,20.45
2023-05-05T02:14:21.679Z,16.83
2023-05-05T02:14:34.486Z,14.32
2023-05-05T02:14:46.953Z,14.80
2023-05-05T02:15:00.068Z,15.40
2023-05-05T02:15:14.141Z,16.67
2023-05-05T02:15:27.814Z,15.10
2023-05-05T02:15:40.784Z,13.63
2023-05-05T02:15:54.833Z,15.60
2023-05-05T02:16:07.469Z,16.27
2023-05-05T02:16:20.459Z,16.20
2023-05-05T02:16:33.342Z,15.90
2023-05-05T02:16:45.624Z,16.17
2023-05-05T02:16:58.192Z,17.38
2023-05-05T02:17:12.412Z,16.25
2023-05-05T02:17:25.397Z,14.30
2023-05-05T02:17:40.432Z,14.20
2023-05-05T02:17:52.371Z,15.00
2023-05-05T02:18:05.872Z,16.55
2023-05-05T02:18:18.594Z,17.95
2023-05-05T02:18:31.012Z,16.65
2023-05-05T02:18:43.085Z,16.50
2023-05-05T02:19:02.973Z,15.10
2023-05-05T02:19:15.210Z,15.53
2023-05-05T02:19:33.998Z,17.90
2023-05-05T02:19:47.639Z,17.27
2023-05-05T02:20:02.075Z,15.63
2023-05-05T02:20:16.088Z,14.32
2023-05-05T02:20:30.063Z,15.02
2023-05-05T02:20:41.558Z,15.85
2023-05-05T02:20:53.176Z,18.25
2023-05-05T02:21:04.718Z,18.48
2023-05-05T02:21:16.679Z,18.65
2023-05-05T02:21:28.198Z,16.27
2023-05-05T02:21:40.684Z,15.50
2023-05-05T02:21:52.179Z,15.25
2023-05-05T02:22:03.969Z,16.35
2023-05-05T02:22:15.584Z,16.48
2023-05-05T02:22:27.862Z,14.88
2023-05-05T02:22:40.096Z,13.70
2023-05-05T02:22:51.547Z,15.15
2023-05-05T02:23:03.022Z,15.38
2023-05-05T02:23:14.430Z,15.93
2023-05-05T02:23:25.899Z,16.33
2023-05-05T02:23:38.446Z,17.80
2023-05-05T02:23:49.968Z,21.13
2023-05-05T02:24:02.029Z,21.45
2023-05-05T02:24:13.576Z,16.95
2023-05-05T02:24:25.405Z,17.55
2023-05-05T02:24:36.874Z,16.60
2023-05-05T02:24:48.409Z,16.05
2023-05-05T02:24:59.912Z,17.50
2023-05-05T02:25:11.835Z,17.90
2023-05-05T02:25:29.203Z,15.85
2023-05-05T02:25:43.295Z,15.23
2023-05-05T02:26:04.672Z,16.73
2023-05-05T02:26:17.182Z,20.00
2023-05-05T02:26:31.563Z,18.13
2023-05-05T02:26:44.102Z,16.38
2023-05-05T02:26:57.793Z,17.10
2023-05-05T02:27:11.627Z,16.58
2023-05-05T02:27:25.411Z,16.75
2023-05-05T02:27:40.575Z,17.58
2023-05-05T02:27:57.210Z,18.30
2023-05-05T02:28:17.811Z,15.75
2023-05-05T02:28:42.736Z,15.52
2023-05-05T02:29:07.689Z,15.43
2023-05-05T02:29:42.427Z,17.10
2023-05-05T02:29:58.602Z,17.10
2023-05-05T02:30:13.599Z,13.82
2023-05-05T02:30:27.354Z,13.73
2023-05-05T02:30:39.664Z,15.65
2023-05-05T02:30:59.407Z,16.05
2023-05-05T02:31:13.789Z,15.88
2023-05-05T02:31:28.632Z,15.23
2023-05-05T02:31:45.328Z,14.75
2023-05-05T02:32:06.725Z,15.63
2023-05-05T02:32:31.222Z,14.20
2023-05-05T02:32:50.869Z,18.63
2023-05-05T02:33:08.137Z,18.38
2023-05-05T02:33:22.443Z,16.08
2023-05-05T02:33:35.336Z,14.82
2023-05-05T02:33:49.511Z,15.10
2023-05-05T02:34:04.151Z,15.05
2023-05-05T02:34:22.309Z,14.55
2023-05-05T02:34:36.791Z,17.42
2023-05-05T02:34:50.169Z,20.73
2023-05-05T02:35:09.168Z,21.33
2023-05-05T02:35:24.683Z,17.52
2023-05-05T02:35:39.727Z,15.75
2023-05-05T02:35:53.391Z,15.80
2023-05-05T02:36:13.789Z,15.07
2023-05-05T02:36:29.238Z,17.27
2023-05-05T02:36:42.435Z,21.63
2023-05-05T02:36:58.173Z,20.13
2023-05-05T02:37:12.500Z,15.27
2023-05-05T02:37:27.318Z,13.75
2023-05-05T02:37:40.475Z,13.98
2023-05-05T02:38:00.459Z,13.57
2023-05-05T02:38:17.664Z,15.48
2023-05-05T02:38:30.442Z,18.42
2023-05-05T02:38:45.020Z,20.10
2023-05-05T02:39:00.772Z,18.80
2023-05-05T02:39:24.941Z,16.13
2023-05-05T02:39:51.566Z,17.98
2023-05-05T02:40:08.156Z,17.85
2023-05-05T02:40:23.692Z,18.30
2023-05-05T02:40:36.033Z,18.13
2023-05-05T02:40:49.672Z,15.38
2023-05-05T02:41:02.679Z,15.43
2023-05-05T02:41:18.227Z,17.88
2023-05-05T02:41:33.204Z,19.15
2023-05-05T02:41:47.216Z,17.77
2023-05-05T02:42:02.156Z,16.95
2023-05-05T02:42:18.414Z,14.93
2023-05-05T02:42:36.202Z,15.77
2023-05-05T02:42:49.706Z,15.57
2023-05-05T02:43:05.722Z,15.05
2023-05-05T02:43:21.880Z,15.18
2023-05-05T02:43:36.182Z,15.98
2023-05-05T02:43:49.952Z,16.67
2023-05-05T02:44:04.249Z,15.85
2023-05-05T02:44:16.983Z,15.38
2023-05-05T02:44:31.395Z,15.88
2023-05-05T02:44:45.362Z,16.30
2023-05-05T02:45:01.430Z,15.40
2023-05-05T02:45:17.246Z,15.27
2023-05-05T02:45:29.324Z,16.73
2023-05-05T02:45:40.862Z,16.95
2023-05-05T02:45:52.423Z,17.52
2023-05-05T02:46:03.877Z,15.80
2023-05-05T02:46:15.964Z,15.32
2023-05-05T02:46:28.048Z,15.18
2023-05-05T02:46:39.651Z,15.90
2023-05-05T02:46:51.421Z,16.38
2023-05-05T02:47:03.573Z,16.73
2023-05-05T02:47:15.069Z,16.00
2023-05-05T02:47:36.063Z,15.73
2023-05-05T02:47:47.829Z,16.67
2023-05-05T02:48:05.488Z,17.42
2023-05-05T02:48:16.965Z,15.45
2023-05-05T02:48:28.403Z,15.05
2023-05-05T02:48:40.024Z,14.35
2023-05-05T02:48:51.455Z,15.70
2023-05-05T02:49:02.877Z,15.73
2023-05-05T02:49:15.205Z,15.82
2023-05-05T02:49:26.970Z,14.00
2023-05-05T02:49:38.407Z,16.05
2023-05-05T02:49:49.823Z,16.17
2023-05-05T02:50:01.649Z,15.18
2023-05-05T02:50:13.096Z,15.35
2023-05-05T02:50:24.527Z,15.90
2023-05-05T02:50:36.042Z,15.77
2023-05-05T02:50:47.474Z,16.13
2023-05-05T02:50:58.944Z,17.27
2023-05-05T02:51:10.479Z,16.75
2023-05-05T02:51:21.855Z,19.42
2023-05-05T02:51:33.332Z,19.65
2023-05-05T02:51:44.778Z,20.30
2023-05-05T02:51:56.393Z,18.20
2023-05-05T02:52:07.862Z,17.65
2023-05-05T02:52:19.491Z,16.48
2023-05-05T02:52:32.332Z,15.80
2023-05-05T02:52:44.765Z,15.65
2023-05-05T02:53:01.656Z,17.33
2023-05-05T02:53:13.363Z,16.08
2023-05-05T02:53:26.843Z,13.82
2023-05-05T02:53:38.555Z,15.23
2023-05-05T02:53:50.007Z,16.42
2023-05-05T02:54:01.841Z,15.32
2023-05-05T02:54:13.508Z,13.35
2023-05-05T02:54:28.180Z,14.10
2023-05-05T02:54:39.793Z,15.25
2023-05-05T02:54:51.484Z,13.93
2023-05-05T02:55:04.749Z,14.05
2023-05-05T02:55:16.151Z,14.38
2023-05-05T02:55:44.982Z,14.93
2023-05-05T02:56:26.297Z,16.20
2023-05-05T02:56:44.068Z,22.75
2023-05-05T02:56:57.242Z,20.00
2023-05-05T02:57:14.033Z,15.65
2023-05-05T02:57:53.621Z,15.18
2023-05-05T02:58:13.551Z,15.10
2023-05-05T02:58:27.652Z,13.13
2023-05-05T02:59:07.965Z,14.02
2023-05-05T02:59:44.521Z,16.17
2023-05-05T03:00:10.622Z,15.52
2023-05-05T03:00:47.370Z,15.00
2023-05-05T03:01:18.135Z,15.80
2023-05-05T03:01:47.484Z,15.50
2023-05-05T03:02:20.855Z,14.95
2023-05-05T03:02:51.604Z,14.85
2023-05-05T03:03:22.315Z,15.77
2023-05-05T03:03:59.275Z,16.42
2023-05-05T03:04:16.126Z,15.23
2023-05-05T03:04:38.211Z,16.75
2023-05-05T03:04:56.286Z,15.25
2023-05-05T03:05:22.280Z,16.42
2023-05-05T03:05:42.302Z,16.70
2023-05-05T03:06:11.191Z,15.55
2023-05-05T03:06:26.423Z,15.43
2023-05-05T03:06:43.503Z,14.85
2023-05-05T03:06:59.555Z,13.75
2023-05-05T03:07:16.297Z,15.68
2023-05-05T03:07:53.014Z,17.00
2023-05-05T03:08:26.608Z,19.33
2023-05-05T03:08:49.253Z,15.40
2023-05-05T03:09:09.692Z,18.55
2023-05-05T03:09:46.560Z,17.25
2023-05-05T03:10:06.319Z,14.88
2023-05-05T03:10:21.051Z,17.90
2023-05-05T03:10:44.079Z,17.35
2023-05-05T03:11:34.647Z,16.92
2023-05-05T03:12:01.821Z,16.65
2023-05-05T03:12:20.099Z,15.30
2023-05-05T03:12:38.454Z,16.70
2023-05-05T03:12:58.534Z,18.90
2023-05-05T03:13:12.032Z,18.83
2023-05-05T03:13:26.360Z,18.02
2023-05-05T03:13:42.369Z,17.67
2023-05-05T03:14:17.593Z,16.25